createdAt,value
2019-03-21T00:00:23.041Z,0
2019-03-21T00:01:32.960Z,0
2019-03-21T00:02:42.887Z,0
2019-03-21T00:03:52.805Z,0
2019-03-21T00:05:02.771Z,0
2019-03-21T00:06:12.757Z,0
2019-03-21T00:07:22.675Z,0
2019-03-21T00:08:32.594Z,0
2019-03-21T00:09:42.510Z,0
2019-03-21T00:10:52.427Z,0
2019-03-21T00:12:02.460Z,0
2019-03-21T00:13:12.138Z,0
2019-03-21T00:14:22.057Z,0
2019-03-21T00:15:31.979Z,0
2019-03-21T00:16:41.897Z,0
2019-03-21T00:17:51.819Z,0
2019-03-21T00:19:01.739Z,0
2019-03-21T00:20:11.671Z,0
2019-03-21T00:21:21.587Z,0
2019-03-21T00:22:31.502Z,0
2019-03-21T00:23:41.475Z,0
2019-03-21T00:24:51.406Z,0
2019-03-21T00:26:01.328Z,0
2019-03-21T00:27:11.265Z,0
2019-03-21T00:28:21.203Z,0
2019-03-21T00:29:31.225Z,0
2019-03-21T00:30:41.155Z,0
2019-03-21T00:31:51.078Z,0
2019-03-21T00:33:00.998Z,0
2019-03-21T00:34:10.686Z,0
2019-03-21T00:35:20.706Z,0
2019-03-21T00:36:30.634Z,0
2019-03-21T00:37:40.555Z,0
2019-03-21T00:38:50.478Z,0
2019-03-21T00:40:00.403Z,0
2019-03-21T00:41:10.399Z,0
2019-03-21T00:42:20.322Z,0
2019-03-21T00:43:30.251Z,0
2019-03-21T00:46:34.127Z,0
2019-03-21T00:47:44.066Z,0
2019-03-21T00:48:53.995Z,0
2019-03-21T00:50:03.928Z,0
2019-03-21T00:51:13.849Z,0
2019-03-21T00:52:23.771Z,0
2019-03-21T00:53:33.692Z,0
2019-03-21T00:54:43.608Z,0
2019-03-21T00:55:53.530Z,0
2019-03-21T00:57:03.456Z,0
2019-03-21T00:58:13.977Z,0
2019-03-21T00:59:23.944Z,0
2019-03-21T01:00:33.874Z,0
2019-03-21T01:01:43.797Z,0
2019-03-21T01:02:53.717Z,0
2019-03-21T01:04:03.435Z,0
2019-03-21T01:05:13.360Z,0
2019-03-21T01:06:23.291Z,0
2019-03-21T01:07:33.209Z,0
2019-03-21T01:08:43.130Z,0
2019-03-21T01:09:53.160Z,0
2019-03-21T01:11:03.136Z,0
2019-03-21T01:12:13.059Z,0
2019-03-21T01:13:22.979Z,0
2019-03-21T01:14:39.505Z,0
2019-03-21T01:15:49.520Z,0
2019-03-21T01:16:59.440Z,0
2019-03-21T01:18:09.357Z,0
2019-03-21T01:19:19.286Z,0
2019-03-21T01:20:29.200Z,0
2019-03-21T01:21:39.121Z,0
2019-03-21T01:22:49.077Z,0
2019-03-21T01:23:59.000Z,0
2019-03-21T01:25:08.965Z,0
2019-03-21T01:26:18.934Z,0
2019-03-21T01:27:28.864Z,0
2019-03-21T01:28:38.783Z,0
2019-03-21T01:29:48.702Z,0
2019-03-21T01:30:58.646Z,0
2019-03-21T01:32:08.577Z,0
2019-03-21T01:33:18.615Z,0
2019-03-21T01:34:28.551Z,0
2019-03-21T01:35:38.480Z,0
2019-03-21T01:36:48.475Z,0
2019-03-21T01:37:58.395Z,0
2019-03-21T01:39:08.414Z,0
2019-03-21T01:40:18.330Z,0
2019-03-21T01:41:28.284Z,0
2019-03-21T01:42:38.204Z,0
2019-03-21T01:43:48.130Z,0
2019-03-21T01:44:58.055Z,0
2019-03-21T01:46:07.979Z,0
2019-03-21T01:47:17.901Z,0
2019-03-21T01:48:27.827Z,0
2019-03-21T01:49:37.754Z,0
2019-03-21T01:50:47.724Z,0
2019-03-21T01:51:57.660Z,0
2019-03-21T01:53:07.583Z,0
2019-03-21T01:54:17.515Z,0
2019-03-21T01:55:27.435Z,0
2019-03-21T01:56:37.478Z,0
2019-03-21T01:57:47.401Z,0
2019-03-21T01:58:57.072Z,0
2019-03-21T02:00:06.996Z,0
2019-03-21T02:01:18.436Z,0
2019-03-21T02:02:28.354Z,0
2019-03-21T02:03:38.290Z,0
2019-03-21T02:04:48.208Z,0
2019-03-21T02:05:58.127Z,0
2019-03-21T02:07:08.051Z,0
2019-03-21T02:08:18.084Z,0
2019-03-21T02:09:28.008Z,0
2019-03-21T02:10:37.941Z,0
2019-03-21T02:11:48.507Z,0
2019-03-21T02:12:58.437Z,0
2019-03-21T02:14:08.468Z,0
2019-03-21T02:15:18.400Z,0
2019-03-21T02:16:28.318Z,0
2019-03-21T02:17:38.248Z,0
2019-03-21T02:18:48.173Z,0
2019-03-21T02:19:58.090Z,0
2019-03-21T02:21:08.014Z,0
2019-03-21T02:22:17.930Z,0
2019-03-21T02:23:27.855Z,0
2019-03-21T02:24:37.777Z,0
2019-03-21T02:25:47.798Z,0
2019-03-21T02:26:57.723Z,0
2019-03-21T02:28:07.678Z,0
2019-03-21T02:29:17.605Z,0
2019-03-21T02:30:27.546Z,0
2019-03-21T02:31:37.475Z,0
2019-03-21T02:32:47.406Z,0
2019-03-21T02:33:57.426Z,0
2019-03-21T02:35:07.693Z,0
2019-03-21T02:36:17.413Z,0
2019-03-21T02:37:27.478Z,0
2019-03-21T02:38:37.420Z,0
2019-03-21T02:40:01.024Z,0
2019-03-21T02:41:11.000Z,0
2019-03-21T02:42:21.077Z,0
2019-03-21T02:43:31.012Z,0
2019-03-21T02:44:41.304Z,0
2019-03-21T02:45:51.631Z,0
2019-03-21T02:47:01.554Z,0
2019-03-21T02:48:11.232Z,0
2019-03-21T02:49:21.206Z,0
2019-03-21T02:50:31.168Z,0
2019-03-21T02:51:41.099Z,0
2019-03-21T02:52:51.048Z,0
2019-03-21T02:54:01.134Z,0
2019-03-21T02:55:11.090Z,0
2019-03-21T02:56:21.049Z,0
2019-03-21T02:57:30.983Z,0
2019-03-21T02:58:40.921Z,0
2019-03-21T02:59:50.946Z,0
2019-03-21T03:01:00.885Z,0
2019-03-21T03:02:10.874Z,0
2019-03-21T03:03:20.812Z,0
2019-03-21T03:04:30.774Z,0
2019-03-21T03:05:40.722Z,0
2019-03-21T03:06:50.664Z,0
2019-03-21T03:08:00.622Z,0
2019-03-21T03:09:10.317Z,0
2019-03-21T03:10:20.250Z,0
2019-03-21T03:11:30.301Z,0
2019-03-21T03:12:40.244Z,0
2019-03-21T03:13:50.234Z,0
2019-03-21T03:15:00.166Z,0
2019-03-21T03:16:10.109Z,0
2019-03-21T03:17:20.154Z,0
2019-03-21T03:18:30.107Z,0
2019-03-21T03:19:40.045Z,0
2019-03-21T03:20:49.976Z,0
2019-03-21T03:21:59.938Z,0
2019-03-21T03:23:09.887Z,0
2019-03-21T03:24:19.578Z,0
2019-03-21T03:25:29.259Z,0
2019-03-21T03:26:39.207Z,0
2019-03-21T03:27:49.152Z,0
2019-03-21T03:28:59.110Z,0
2019-03-21T03:30:09.240Z,0
2019-03-21T03:31:19.204Z,0
2019-03-21T03:32:29.160Z,0
2019-03-21T03:33:39.239Z,0
2019-03-21T03:34:49.289Z,0
2019-03-21T03:35:59.214Z,0
2019-03-21T03:37:09.151Z,0
2019-03-21T03:38:19.099Z,0
2019-03-21T03:39:29.049Z,0
2019-03-21T03:40:39.130Z,0
2019-03-21T03:41:49.057Z,0
2019-03-21T03:42:58.980Z,0
2019-03-21T03:44:08.935Z,0
2019-03-21T03:45:18.865Z,0
2019-03-21T03:46:28.815Z,0
2019-03-21T03:47:38.738Z,0
2019-03-21T03:48:48.682Z,0
2019-03-21T03:49:58.637Z,0
2019-03-21T03:51:08.580Z,0
2019-03-21T03:52:18.672Z,0
2019-03-21T03:53:28.617Z,0
2019-03-21T03:54:38.556Z,0
2019-03-21T03:55:48.506Z,0
2019-03-21T03:56:58.443Z,0
2019-03-21T03:58:08.385Z,0
2019-03-21T03:59:18.314Z,0
2019-03-21T04:00:28.258Z,0
2019-03-21T04:01:38.201Z,0
2019-03-21T04:02:48.145Z,0
2019-03-21T04:03:58.252Z,0
2019-03-21T04:05:08.438Z,0
2019-03-21T04:06:18.387Z,0
2019-03-21T04:07:28.332Z,0
2019-03-21T04:08:38.264Z,0
2019-03-21T04:09:48.396Z,0
2019-03-21T04:10:58.426Z,0
2019-03-21T04:12:08.383Z,0
2019-03-21T04:13:18.309Z,0
2019-03-21T04:14:28.275Z,0
2019-03-21T04:15:51.569Z,0
2019-03-21T04:17:01.801Z,0
2019-03-21T04:18:11.736Z,0
2019-03-21T04:19:21.690Z,0
2019-03-21T04:20:31.791Z,0
2019-03-21T04:21:41.747Z,0
2019-03-21T04:22:51.690Z,0
2019-03-21T04:24:04.573Z,0
2019-03-21T04:25:14.532Z,0
2019-03-21T04:26:24.600Z,0
2019-03-21T04:27:34.543Z,0
2019-03-21T04:28:44.236Z,0
2019-03-21T04:29:54.227Z,0
2019-03-21T04:31:04.184Z,0
2019-03-21T04:32:14.232Z,0
2019-03-21T04:33:27.193Z,0
2019-03-21T04:34:37.127Z,0
2019-03-21T04:35:47.064Z,0
2019-03-21T04:36:56.997Z,0
2019-03-21T04:38:06.938Z,0
2019-03-21T04:39:16.888Z,0
2019-03-21T04:40:26.827Z,0
2019-03-21T04:41:36.750Z,0
2019-03-21T04:42:46.674Z,0
2019-03-21T04:43:56.755Z,0
2019-03-21T04:45:06.687Z,0
2019-03-21T04:46:16.615Z,0
2019-03-21T04:47:26.535Z,0
2019-03-21T04:48:36.460Z,0
2019-03-21T04:49:46.383Z,0
2019-03-21T04:50:56.322Z,0
2019-03-21T04:52:06.243Z,0
2019-03-21T04:53:16.168Z,0
2019-03-21T04:54:26.102Z,0
2019-03-21T04:55:36.037Z,0
2019-03-21T04:56:45.962Z,0
2019-03-21T04:57:55.881Z,0
2019-03-21T04:59:05.812Z,0
2019-03-21T05:00:15.749Z,0
2019-03-21T05:01:25.778Z,0
2019-03-21T05:02:35.704Z,0
2019-03-21T05:03:45.625Z,0
2019-03-21T05:04:55.550Z,0
2019-03-21T05:06:05.238Z,0
2019-03-21T05:07:15.265Z,0
2019-03-21T05:08:25.193Z,5
2019-03-21T05:09:35.138Z,5
2019-03-21T05:10:45.058Z,5
2019-03-21T05:11:54.989Z,5
2019-03-21T05:13:04.907Z,5
2019-03-21T05:14:14.828Z,5
2019-03-21T05:15:24.771Z,5
2019-03-21T05:16:34.452Z,10
2019-03-21T05:17:44.375Z,10
2019-03-21T05:18:54.347Z,10
2019-03-21T05:20:04.281Z,10
2019-03-21T05:21:14.197Z,10
2019-03-21T05:22:24.114Z,15
2019-03-21T05:23:34.041Z,15
2019-03-21T05:24:43.986Z,15
2019-03-21T05:25:53.931Z,15
2019-03-21T05:27:03.859Z,20
2019-03-21T05:28:13.788Z,20
2019-03-21T05:29:23.705Z,20
2019-03-21T05:30:33.625Z,25
2019-03-21T05:31:43.544Z,25
2019-03-21T05:32:54.137Z,25
2019-03-21T05:34:04.079Z,30
2019-03-21T05:35:14.009Z,30
2019-03-21T05:36:24.024Z,30
2019-03-21T05:37:33.957Z,35
2019-03-21T05:38:43.883Z,35
2019-03-21T05:39:53.804Z,40
2019-03-21T05:41:03.731Z,40
2019-03-21T05:42:13.763Z,40
2019-03-21T05:43:23.686Z,45
2019-03-21T05:44:35.672Z,45
2019-03-21T05:45:45.616Z,50
2019-03-21T05:46:55.597Z,50
2019-03-21T05:48:05.273Z,55
2019-03-21T05:49:15.195Z,55
2019-03-21T05:50:25.116Z,60
2019-03-21T05:51:35.045Z,60
2019-03-21T05:52:44.968Z,65
2019-03-21T05:53:54.957Z,70
2019-03-21T05:55:05.094Z,75
2019-03-21T05:56:15.025Z,75
2019-03-21T05:57:24.953Z,75
2019-03-21T05:58:34.874Z,75
2019-03-21T05:59:44.794Z,80
2019-03-21T06:00:56.191Z,80
2019-03-21T06:02:06.129Z,80
2019-03-21T06:03:16.050Z,80
2019-03-21T06:04:25.975Z,80
2019-03-21T06:05:36.005Z,80
2019-03-21T06:06:45.932Z,85
2019-03-21T06:07:55.861Z,85
2019-03-21T06:09:05.792Z,85
2019-03-21T06:10:15.713Z,85
2019-03-21T06:11:25.730Z,85
2019-03-21T06:12:35.650Z,85
2019-03-21T06:13:45.571Z,90
2019-03-21T06:14:55.498Z,90
2019-03-21T06:16:05.421Z,95
2019-03-21T06:17:15.346Z,95
2019-03-21T06:18:25.268Z,95
2019-03-21T06:19:35.192Z,100
2019-03-21T06:20:45.135Z,100
2019-03-21T06:21:55.053Z,105
2019-03-21T06:23:04.972Z,105
2019-03-21T06:24:14.893Z,105
2019-03-21T06:25:25.611Z,105
2019-03-21T06:26:35.288Z,105
2019-03-21T06:27:45.224Z,110
2019-03-21T06:28:55.219Z,115
2019-03-21T06:30:05.269Z,115
2019-03-21T06:31:15.191Z,115
2019-03-21T06:32:24.905Z,115
2019-03-21T06:33:34.831Z,120
2019-03-21T06:34:44.856Z,125
2019-03-21T06:35:54.792Z,125
2019-03-21T06:37:04.715Z,130
2019-03-21T06:38:14.658Z,135
2019-03-21T06:39:24.578Z,135
2019-03-21T06:40:34.516Z,135
2019-03-21T06:41:44.434Z,135
2019-03-21T06:42:54.418Z,140
2019-03-21T06:44:04.349Z,140
2019-03-21T06:45:14.280Z,150
2019-03-21T06:46:24.250Z,160
2019-03-21T06:47:34.178Z,160
2019-03-21T06:48:44.099Z,160
2019-03-21T06:49:56.166Z,160
2019-03-21T06:51:06.094Z,165
2019-03-21T06:52:16.017Z,165
2019-03-21T06:53:25.945Z,170
2019-03-21T06:54:36.206Z,170
2019-03-21T06:55:46.153Z,170
2019-03-21T06:56:56.077Z,170
2019-03-21T06:58:06.004Z,175
2019-03-21T06:59:15.961Z,175
2019-03-21T07:00:27.520Z,175
2019-03-21T07:01:37.448Z,180
2019-03-21T07:02:47.370Z,180
2019-03-21T07:04:08.983Z,180
2019-03-21T07:05:18.907Z,185
2019-03-21T07:06:28.838Z,185
2019-03-21T07:07:38.773Z,185
2019-03-21T07:08:48.700Z,190
2019-03-21T07:09:58.630Z,190
2019-03-21T07:11:08.563Z,195
2019-03-21T07:12:18.484Z,195
2019-03-21T07:13:28.413Z,195
2019-03-21T07:14:38.438Z,200
2019-03-21T07:15:48.361Z,205
2019-03-21T07:17:09.534Z,205
2019-03-21T07:18:19.487Z,210
2019-03-21T07:19:29.522Z,210
2019-03-21T07:20:39.444Z,215
2019-03-21T07:21:49.141Z,215
2019-03-21T07:22:59.152Z,210
2019-03-21T07:24:08.849Z,210
2019-03-21T07:25:18.777Z,210
2019-03-21T07:26:28.705Z,210
2019-03-21T07:27:38.640Z,210
2019-03-21T07:28:48.571Z,210
2019-03-21T07:29:58.567Z,215
2019-03-21T07:31:08.499Z,215
2019-03-21T07:32:18.422Z,220
2019-03-21T07:33:28.388Z,220
2019-03-21T07:34:38.310Z,220
2019-03-21T07:35:48.241Z,220
2019-03-21T07:36:58.277Z,225
2019-03-21T07:38:08.207Z,225
2019-03-21T07:39:18.172Z,225
2019-03-21T07:40:28.098Z,225
2019-03-21T07:41:38.036Z,225
2019-03-21T07:42:48.074Z,230
2019-03-21T07:43:58.005Z,230
2019-03-21T07:45:07.930Z,230
2019-03-21T07:46:17.865Z,235
2019-03-21T07:47:28.021Z,235
2019-03-21T07:48:37.953Z,235
2019-03-21T07:49:47.884Z,240
2019-03-21T07:50:57.564Z,245
2019-03-21T07:52:07.509Z,245
2019-03-21T07:53:17.438Z,250
2019-03-21T07:54:27.419Z,250
2019-03-21T07:55:37.352Z,250
2019-03-21T07:56:47.026Z,255
2019-03-21T07:57:59.325Z,255
2019-03-21T07:59:09.479Z,255
2019-03-21T08:00:19.417Z,255
2019-03-21T08:01:29.352Z,255
2019-03-21T08:02:39.031Z,260
2019-03-21T08:03:48.959Z,265
2019-03-21T08:04:58.881Z,265
2019-03-21T08:06:08.806Z,270
2019-03-21T08:07:18.732Z,280
2019-03-21T08:08:28.653Z,275
2019-03-21T08:09:38.894Z,275
2019-03-21T08:10:48.956Z,280
2019-03-21T08:11:58.940Z,285
2019-03-21T08:13:08.866Z,280
2019-03-21T08:14:18.793Z,285
2019-03-21T08:15:28.716Z,285
2019-03-21T08:16:38.659Z,280
2019-03-21T08:17:48.604Z,280
2019-03-21T08:18:58.530Z,280
2019-03-21T08:20:08.463Z,275
2019-03-21T08:21:18.386Z,280
2019-03-21T08:22:28.312Z,280
2019-03-21T08:23:38.236Z,280
2019-03-21T08:24:48.160Z,280
2019-03-21T08:25:58.087Z,280
2019-03-21T08:27:08.018Z,285
2019-03-21T08:28:17.943Z,285
2019-03-21T08:29:27.920Z,290
2019-03-21T08:30:37.914Z,290
2019-03-21T08:31:47.881Z,295
2019-03-21T08:32:57.811Z,300
2019-03-21T08:34:07.759Z,300
2019-03-21T08:35:17.681Z,300
2019-03-21T08:36:27.607Z,305
2019-03-21T08:37:37.535Z,310
2019-03-21T08:38:47.461Z,310
2019-03-21T08:39:57.386Z,315
2019-03-21T08:41:07.317Z,320
2019-03-21T08:42:17.241Z,325
2019-03-21T08:43:27.200Z,325
2019-03-21T08:44:37.133Z,330
2019-03-21T08:45:47.061Z,340
2019-03-21T08:46:57.034Z,355
2019-03-21T08:48:06.970Z,385
2019-03-21T08:49:16.896Z,400
2019-03-21T08:50:26.832Z,370
2019-03-21T08:51:36.759Z,365
2019-03-21T08:52:46.684Z,360
2019-03-21T08:53:56.618Z,360
2019-03-21T08:55:06.056Z,360
2019-03-21T08:56:15.985Z,365
2019-03-21T08:57:25.910Z,365
2019-03-21T08:58:35.836Z,365
2019-03-21T08:59:47.977Z,365
2019-03-21T09:00:58.028Z,370
2019-03-21T09:02:07.706Z,365
2019-03-21T09:03:17.631Z,365
2019-03-21T09:04:27.610Z,365
2019-03-21T09:05:37.541Z,365
2019-03-21T09:06:47.470Z,355
2019-03-21T09:07:57.404Z,360
2019-03-21T09:09:07.340Z,365
2019-03-21T09:10:17.725Z,360
2019-03-21T09:11:27.405Z,360
2019-03-21T09:12:37.343Z,390
2019-03-21T09:13:47.270Z,430
2019-03-21T09:14:57.222Z,500
2019-03-21T09:16:07.167Z,440
2019-03-21T09:17:17.093Z,475
2019-03-21T09:18:26.770Z,435
2019-03-21T09:19:36.704Z,485
2019-03-21T09:20:46.633Z,600
2019-03-21T09:21:56.666Z,445
2019-03-21T09:23:06.600Z,460
2019-03-21T09:24:16.273Z,435
2019-03-21T09:25:26.207Z,470
2019-03-21T09:26:36.133Z,385
2019-03-21T09:27:46.063Z,385
2019-03-21T09:28:55.992Z,355
2019-03-21T09:30:05.936Z,415
2019-03-21T09:31:15.864Z,415
2019-03-21T09:32:26.260Z,420
2019-03-21T09:33:36.219Z,435
2019-03-21T09:34:46.151Z,425
2019-03-21T09:35:56.084Z,430
2019-03-21T09:37:08.801Z,420
2019-03-21T09:38:18.731Z,385
2019-03-21T09:39:28.704Z,380
2019-03-21T09:40:38.628Z,385
2019-03-21T09:41:48.557Z,400
2019-03-21T09:42:58.484Z,415
2019-03-21T09:44:08.415Z,470
2019-03-21T09:45:18.194Z,515
2019-03-21T09:46:28.170Z,535
2019-03-21T09:47:38.111Z,555
2019-03-21T09:48:48.040Z,555
2019-03-21T09:49:59.262Z,600
2019-03-21T09:51:09.329Z,690
2019-03-21T09:52:19.258Z,650
2019-03-21T09:53:29.189Z,565
2019-03-21T09:54:39.111Z,590
2019-03-21T09:55:49.138Z,570
2019-03-21T09:56:59.140Z,595
2019-03-21T09:58:09.074Z,600
2019-03-21T09:59:19.005Z,455
2019-03-21T10:00:28.932Z,455
2019-03-21T10:01:38.860Z,625
2019-03-21T10:02:48.791Z,605
2019-03-21T10:03:58.721Z,555
2019-03-21T10:05:08.650Z,575
2019-03-21T10:06:18.606Z,555
2019-03-21T10:07:28.543Z,575
2019-03-21T10:08:38.473Z,470
2019-03-21T10:09:48.402Z,440
2019-03-21T10:10:58.338Z,545
2019-03-21T10:12:08.288Z,565
2019-03-21T10:13:18.212Z,595
2019-03-21T10:14:28.192Z,610
2019-03-21T10:15:38.223Z,685
2019-03-21T10:16:48.149Z,630
2019-03-21T10:17:58.081Z,500
2019-03-21T10:19:08.081Z,535
2019-03-21T10:20:18.011Z,520
2019-03-21T10:21:27.943Z,525
2019-03-21T10:22:37.870Z,580
2019-03-21T10:23:47.823Z,695
2019-03-21T10:24:57.776Z,680
2019-03-21T10:26:07.701Z,490
2019-03-21T10:27:17.697Z,435
2019-03-21T10:28:27.622Z,595
2019-03-21T10:29:37.559Z,585
2019-03-21T10:30:47.488Z,600
2019-03-21T10:31:57.475Z,660
2019-03-21T10:33:07.413Z,650
2019-03-21T10:34:17.356Z,700
2019-03-21T10:35:27.284Z,745
2019-03-21T10:36:37.218Z,680
2019-03-21T10:37:47.151Z,530
2019-03-21T10:38:57.084Z,700
2019-03-21T10:40:06.763Z,695
2019-03-21T10:41:16.709Z,665
2019-03-21T10:42:26.638Z,585
2019-03-21T10:43:36.315Z,490
2019-03-21T10:44:46.305Z,575
2019-03-21T10:45:56.232Z,495
2019-03-21T10:47:06.181Z,560
2019-03-21T10:48:15.863Z,565
2019-03-21T10:49:25.850Z,485
2019-03-21T10:50:35.781Z,475
2019-03-21T10:51:56.805Z,480
2019-03-21T10:53:06.745Z,485
2019-03-21T10:54:16.675Z,470
2019-03-21T10:55:26.607Z,475
2019-03-21T10:56:36.539Z,465
2019-03-21T10:57:46.523Z,480
2019-03-21T10:58:56.450Z,525
2019-03-21T11:00:09.091Z,635
2019-03-21T11:01:19.022Z,775
2019-03-21T11:02:28.963Z,685
2019-03-21T11:03:38.890Z,560
2019-03-21T11:04:48.822Z,560
2019-03-21T11:05:58.808Z,555
2019-03-21T11:07:08.736Z,535
2019-03-21T11:08:18.671Z,470
2019-03-21T11:09:28.598Z,470
2019-03-21T11:10:38.576Z,490
2019-03-21T11:11:48.512Z,610
2019-03-21T11:12:58.470Z,820
2019-03-21T11:14:08.404Z,800
2019-03-21T11:15:18.333Z,970
2019-03-21T11:16:28.269Z,1035
2019-03-21T11:17:38.298Z,1065
2019-03-21T11:18:48.231Z,1115
2019-03-21T11:19:58.179Z,1055
2019-03-21T11:21:07.871Z,1000
2019-03-21T11:22:17.838Z,1015
2019-03-21T11:23:27.894Z,1020
2019-03-21T11:24:37.823Z,1000
2019-03-21T11:25:47.769Z,990
2019-03-21T11:26:57.520Z,1070
2019-03-21T11:28:07.452Z,1215
2019-03-21T11:29:17.392Z,1305
2019-03-21T11:30:27.333Z,1410
2019-03-21T11:31:37.265Z,1250
2019-03-21T11:32:47.342Z,1380
2019-03-21T11:33:57.334Z,1310
2019-03-21T11:35:07.386Z,1345
2019-03-21T11:36:17.332Z,1020
2019-03-21T11:37:27.276Z,1305
2019-03-21T11:38:37.207Z,1415
2019-03-21T11:39:47.141Z,1305
2019-03-21T11:40:58.205Z,1415
2019-03-21T11:42:08.187Z,1025
2019-03-21T11:43:18.202Z,835
2019-03-21T11:44:28.176Z,875
2019-03-21T11:45:38.168Z,845
2019-03-21T11:46:48.177Z,715
2019-03-21T11:47:59.684Z,665
2019-03-21T11:49:09.940Z,610
2019-03-21T11:50:19.933Z,620
2019-03-21T11:51:29.926Z,610
2019-03-21T11:52:41.051Z,545
2019-03-21T11:53:51.261Z,570
2019-03-21T11:55:01.260Z,655
2019-03-21T11:56:13.022Z,595
2019-03-21T11:57:23.100Z,525
2019-03-21T11:58:33.111Z,540
2019-03-21T12:00:00.309Z,575
2019-03-21T12:01:10.251Z,555
2019-03-21T12:02:31.247Z,530
2019-03-21T12:03:41.190Z,550
2019-03-21T12:04:51.120Z,650
2019-03-21T12:06:01.055Z,605
2019-03-21T12:07:10.995Z,550
2019-03-21T12:08:20.693Z,570
2019-03-21T12:09:30.630Z,620
2019-03-21T12:10:40.586Z,685
2019-03-21T12:11:50.521Z,720
2019-03-21T12:13:00.452Z,695
2019-03-21T12:14:10.392Z,720
2019-03-21T12:15:20.392Z,715
2019-03-21T12:16:30.074Z,745
2019-03-21T12:17:40.020Z,860
2019-03-21T12:18:49.965Z,915
2019-03-21T12:19:59.921Z,890
2019-03-21T12:21:09.855Z,675
2019-03-21T12:22:31.580Z,615
2019-03-21T12:23:41.513Z,615
2019-03-21T12:24:51.452Z,680
2019-03-21T12:26:01.392Z,690
2019-03-21T12:27:11.328Z,595
2019-03-21T12:28:21.259Z,590
2019-03-21T12:29:31.214Z,610
2019-03-21T12:30:41.196Z,1260
2019-03-21T12:31:51.176Z,1370
2019-03-21T12:33:01.111Z,1320
2019-03-21T12:34:11.074Z,1160
2019-03-21T12:35:21.005Z,720
2019-03-21T12:36:30.940Z,725
2019-03-21T12:37:40.875Z,740
2019-03-21T12:38:50.869Z,1015
2019-03-21T12:40:00.810Z,1135
2019-03-21T12:41:10.768Z,1290
2019-03-21T12:42:20.711Z,500
2019-03-21T12:43:30.652Z,475
2019-03-21T12:44:40.589Z,575
2019-03-21T12:45:50.608Z,610
2019-03-21T12:47:00.540Z,2545
2019-03-21T12:48:10.482Z,2525
2019-03-21T12:49:20.469Z,815
2019-03-21T12:50:30.412Z,420
2019-03-21T12:51:40.353Z,510
2019-03-21T12:52:51.298Z,1535
2019-03-21T12:54:01.266Z,2225
2019-03-21T12:55:10.977Z,2310
2019-03-21T12:56:20.915Z,480
2019-03-21T12:57:30.854Z,2385
2019-03-21T12:58:40.796Z,2350
2019-03-21T12:59:50.737Z,595
2019-03-21T13:01:00.678Z,2620
2019-03-21T13:02:10.635Z,535
2019-03-21T13:03:20.587Z,1650
2019-03-21T13:04:30.523Z,2350
2019-03-21T13:05:40.469Z,2375
2019-03-21T13:06:50.462Z,2260
2019-03-21T13:08:00.398Z,2280
2019-03-21T13:09:10.345Z,2465
2019-03-21T13:10:20.278Z,2490
2019-03-21T13:11:30.215Z,2535
2019-03-21T13:12:40.154Z,870
2019-03-21T13:13:50.097Z,615
2019-03-21T13:15:00.039Z,530
2019-03-21T13:16:09.976Z,530
2019-03-21T13:17:19.915Z,480
2019-03-21T13:18:29.856Z,455
2019-03-21T13:19:39.795Z,430
2019-03-21T13:20:49.744Z,380
2019-03-21T13:21:59.680Z,340
2019-03-21T13:23:09.625Z,335
2019-03-21T13:24:23.948Z,335
2019-03-21T13:25:33.886Z,445
2019-03-21T13:26:43.830Z,445
2019-03-21T13:27:53.776Z,375
2019-03-21T13:29:03.715Z,330
2019-03-21T13:30:13.707Z,850
2019-03-21T13:31:23.640Z,1100
2019-03-21T13:32:33.576Z,495
2019-03-21T13:33:43.518Z,355
2019-03-21T13:34:53.449Z,855
2019-03-21T13:36:03.140Z,1070
2019-03-21T13:37:13.155Z,575
2019-03-21T13:38:23.095Z,720
2019-03-21T13:39:33.025Z,745
2019-03-21T13:40:42.961Z,675
2019-03-21T13:41:52.945Z,820
2019-03-21T13:43:02.884Z,835
2019-03-21T13:44:12.823Z,665
2019-03-21T13:45:22.770Z,525
2019-03-21T13:46:32.740Z,1075
2019-03-21T13:47:42.672Z,1405
2019-03-21T13:48:52.602Z,1220
2019-03-21T13:50:02.748Z,910
2019-03-21T13:51:12.679Z,780
2019-03-21T13:52:22.620Z,615
2019-03-21T13:53:32.549Z,760
2019-03-21T13:54:42.481Z,845
2019-03-21T13:55:52.412Z,715
2019-03-21T13:57:02.352Z,1325
2019-03-21T13:58:12.294Z,1400
2019-03-21T13:59:22.283Z,875
2019-03-21T14:00:32.220Z,920
2019-03-21T14:01:41.916Z,885
2019-03-21T14:02:51.849Z,835
2019-03-21T14:04:04.216Z,640
2019-03-21T14:05:14.165Z,510
2019-03-21T14:06:24.097Z,415
2019-03-21T14:07:34.030Z,645
2019-03-21T14:08:43.960Z,805
2019-03-21T14:09:53.891Z,695
2019-03-21T14:11:03.830Z,475
2019-03-21T14:12:13.791Z,805
2019-03-21T14:13:23.474Z,915
2019-03-21T14:14:33.418Z,840
2019-03-21T14:15:43.415Z,845
2019-03-21T14:16:55.702Z,765
2019-03-21T14:18:05.631Z,795
2019-03-21T14:19:15.314Z,995
2019-03-21T14:20:25.270Z,1110
2019-03-21T14:21:35.200Z,1225
2019-03-21T14:22:45.135Z,1220
2019-03-21T14:23:55.080Z,1090
2019-03-21T14:25:04.763Z,990
2019-03-21T14:26:14.696Z,1255
2019-03-21T14:27:25.998Z,1475
2019-03-21T14:28:36.079Z,1050
2019-03-21T14:29:46.010Z,1285
2019-03-21T14:30:55.945Z,1410
2019-03-21T14:32:05.883Z,1300
2019-03-21T14:33:17.937Z,1125
2019-03-21T14:34:27.947Z,1195
2019-03-21T14:35:37.883Z,1110
2019-03-21T14:36:47.870Z,1210
2019-03-21T14:37:57.598Z,1555
2019-03-21T14:39:07.070Z,1545
2019-03-21T14:40:17.075Z,1245
2019-03-21T14:41:27.095Z,1190
2019-03-21T14:42:37.359Z,1445
2019-03-21T14:43:47.328Z,2075
2019-03-21T14:44:57.267Z,2155
2019-03-21T14:46:07.056Z,2140
2019-03-21T14:47:17.065Z,2125
2019-03-21T14:48:27.005Z,2145
2019-03-21T14:49:36.939Z,2075
2019-03-21T14:50:46.891Z,2130
2019-03-21T14:51:56.961Z,2110
2019-03-21T14:53:06.971Z,2120
2019-03-21T14:54:16.754Z,2075
2019-03-21T14:55:26.350Z,2115
2019-03-21T14:56:36.052Z,2110
2019-03-21T14:57:46.002Z,2000
2019-03-21T14:58:55.954Z,1265
2019-03-21T15:00:05.896Z,1335
2019-03-21T15:01:15.829Z,1970
2019-03-21T15:02:25.785Z,1980
2019-03-21T15:03:35.721Z,2005
2019-03-21T15:04:45.658Z,1955
2019-03-21T15:05:55.598Z,1880
2019-03-21T15:07:05.548Z,1885
2019-03-21T15:08:15.488Z,1770
2019-03-21T15:09:25.501Z,1880
2019-03-21T15:10:35.202Z,1930
2019-03-21T15:11:45.410Z,1925
2019-03-21T15:12:55.401Z,1910
2019-03-21T15:14:05.102Z,1905
2019-03-21T15:15:15.051Z,1860
2019-03-21T15:16:24.998Z,1855
2019-03-21T15:17:34.936Z,1870
2019-03-21T15:18:44.879Z,1855
2019-03-21T15:19:54.828Z,1795
2019-03-21T15:21:04.803Z,1785
2019-03-21T15:22:14.768Z,1820
2019-03-21T15:23:25.911Z,1825
2019-03-21T15:24:36.028Z,1800
2019-03-21T15:25:46.660Z,1795
2019-03-21T15:26:58.462Z,1695
2019-03-21T15:28:08.155Z,1690
2019-03-21T15:29:18.107Z,1670
2019-03-21T15:30:28.622Z,1690
2019-03-21T15:31:38.571Z,1510
2019-03-21T15:32:51.365Z,1435
2019-03-21T15:34:01.306Z,1450
2019-03-21T15:35:11.253Z,1450
2019-03-21T15:36:21.202Z,1475
2019-03-21T15:37:31.142Z,1560
2019-03-21T15:38:41.085Z,1500
2019-03-21T15:39:51.024Z,1365
2019-03-21T15:41:00.974Z,1275
2019-03-21T15:42:10.912Z,1035
2019-03-21T15:43:20.847Z,825
2019-03-21T15:44:30.586Z,785
2019-03-21T15:45:40.523Z,565
2019-03-21T15:46:50.461Z,555
2019-03-21T15:48:00.414Z,730
2019-03-21T15:49:10.345Z,1005
2019-03-21T15:50:20.290Z,795
2019-03-21T15:51:29.984Z,520
2019-03-21T15:52:39.916Z,485
2019-03-21T15:54:03.902Z,625
2019-03-21T15:55:13.834Z,645
2019-03-21T15:56:23.775Z,680
2019-03-21T15:57:36.624Z,465
2019-03-21T15:58:46.555Z,510
2019-03-21T15:59:57.427Z,605
2019-03-21T16:01:07.412Z,380
2019-03-21T16:02:17.350Z,305
2019-03-21T16:03:27.283Z,415
2019-03-21T16:04:37.209Z,430
2019-03-21T16:05:46.884Z,400
2019-03-21T16:06:56.829Z,415
2019-03-21T16:08:08.815Z,515
2019-03-21T16:09:19.077Z,585
2019-03-21T16:10:29.007Z,590
2019-03-21T16:11:38.941Z,665
2019-03-21T16:12:48.886Z,820
2019-03-21T16:13:58.819Z,745
2019-03-21T16:15:08.751Z,650
2019-03-21T16:16:18.691Z,580
2019-03-21T16:17:28.637Z,480
2019-03-21T16:18:38.634Z,375
2019-03-21T16:19:48.563Z,300
2019-03-21T16:20:58.496Z,280
2019-03-21T16:22:08.427Z,320
2019-03-21T16:23:18.361Z,345
2019-03-21T16:24:28.400Z,305
2019-03-21T16:25:38.339Z,250
2019-03-21T16:26:48.288Z,230